createdAt,value
2018-09-10T00:02:33.170Z,2.23
2018-09-10T00:05:08.578Z,1.30
2018-09-10T00:07:59.770Z,2.50
2018-09-10T00:10:38.318Z,4.40
2018-09-10T00:13:16.745Z,4.00
2018-09-10T00:15:52.805Z,3.20
2018-09-10T00:18:39.172Z,2.60
2018-09-10T00:21:15.006Z,4.10
2018-09-10T00:24:00.385Z,3.77
2018-09-10T00:26:34.738Z,4.10
2018-09-10T00:29:12.311Z,4.10
2018-09-10T00:31:45.901Z,5.40
2018-09-10T00:34:27.247Z,3.90
2018-09-10T00:37:06.647Z,3.87
2018-09-10T00:39:40.601Z,4.07
2018-09-10T00:42:15.240Z,13.20
2018-09-10T00:44:48.682Z,3.57
2018-09-10T00:47:22.768Z,2.77
2018-09-10T00:49:57.868Z,4.07
2018-09-10T00:52:37.036Z,3.47
2018-09-10T00:55:14.888Z,3.97
2018-09-10T00:57:49.994Z,2.13
2018-09-10T01:00:25.942Z,3.63
2018-09-10T01:03:04.896Z,5.47
2018-09-10T01:05:48.617Z,5.10
2018-09-10T01:08:23.212Z,3.17
2018-09-10T01:10:57.415Z,4.60
2018-09-10T01:13:33.053Z,4.00
2018-09-10T01:16:06.476Z,4.23
2018-09-10T01:18:40.781Z,4.50
2018-09-10T01:21:15.078Z,3.33
2018-09-10T01:23:52.336Z,3.90
2018-09-10T01:29:07.270Z,3.83
2018-09-10T01:31:43.200Z,3.07
2018-09-10T01:34:27.580Z,5.73
2018-09-10T01:37:05.679Z,4.20
2018-09-10T01:39:40.672Z,4.57
2018-09-10T01:42:15.282Z,3.17
2018-09-10T01:44:49.101Z,3.97
2018-09-10T01:47:24.306Z,3.53
2018-09-10T01:49:58.692Z,5.70
2018-09-10T01:52:37.843Z,6.20
2018-09-10T01:55:12.120Z,4.73
2018-09-10T01:57:50.653Z,3.93
2018-09-10T02:00:25.753Z,4.70
2018-09-10T02:05:05.600Z,4.47
2018-09-10T02:07:41.776Z,4.73
2018-09-10T02:10:16.239Z,7.70
2018-09-10T02:12:50.733Z,3.40
2018-09-10T02:15:26.454Z,3.43
2018-09-10T02:18:02.136Z,3.87
2018-09-10T02:20:36.167Z,5.10
2018-09-10T02:23:10.704Z,4.83
2018-09-10T02:25:45.660Z,3.87
2018-09-10T02:28:25.703Z,3.00
2018-09-10T02:31:07.797Z,6.03
2018-09-10T02:33:43.420Z,3.37
2018-09-10T02:36:19.515Z,3.00
2018-09-10T02:38:54.694Z,4.80
2018-09-10T02:41:27.923Z,4.10
2018-09-10T02:46:53.122Z,4.30
2018-09-10T02:49:34.974Z,4.33
2018-09-10T02:52:09.108Z,6.27
2018-09-10T02:54:44.839Z,6.10
2018-09-10T02:57:17.756Z,5.80
2018-09-10T02:59:52.802Z,2.27
2018-09-10T03:02:31.096Z,6.60
2018-09-10T03:05:10.626Z,5.33
2018-09-10T03:07:48.638Z,3.07
2018-09-10T03:10:25.575Z,5.13
2018-09-10T03:13:02.475Z,5.03
2018-09-10T03:15:39.836Z,2.90
2018-09-10T03:18:19.347Z,4.20
2018-09-10T03:20:53.927Z,6.27
2018-09-10T03:23:28.723Z,5.67
2018-09-10T03:26:09.351Z,3.70
2018-09-10T03:28:42.810Z,2.03
2018-09-10T03:31:26.457Z,5.80
2018-09-10T03:34:05.136Z,3.30
2018-09-10T03:36:41.493Z,9.27
2018-09-10T03:39:14.709Z,4.50
2018-09-10T03:41:48.170Z,4.60
2018-09-10T03:44:22.167Z,6.83
2018-09-10T03:47:03.574Z,3.20
2018-09-10T03:49:37.280Z,6.43
2018-09-10T03:52:12.531Z,2.77
2018-09-10T03:54:46.429Z,4.77
2018-09-10T03:57:19.818Z,3.60
2018-09-10T03:59:58.560Z,4.83
2018-09-10T04:05:27.599Z,5.87
2018-09-10T04:08:03.262Z,5.70
2018-09-10T04:13:29.246Z,8.23
2018-09-10T04:16:04.849Z,7.07
2018-09-10T04:18:40.505Z,7.23
2018-09-10T04:21:16.053Z,6.27
2018-09-10T04:23:57.449Z,5.53
2018-09-10T04:29:17.138Z,10.00
2018-09-10T04:31:53.891Z,9.23
2018-09-10T04:34:29.974Z,7.40
2018-09-10T04:37:07.231Z,5.47
2018-09-10T04:39:40.527Z,8.27
2018-09-10T04:42:14.659Z,6.87
2018-09-10T04:44:50.470Z,4.80
2018-09-10T04:47:24.388Z,5.27
2018-09-10T04:49:59.930Z,3.93
2018-09-10T04:52:33.935Z,3.00
2018-09-10T04:55:07.943Z,5.03
2018-09-10T04:57:43.424Z,4.73
2018-09-10T05:00:24.104Z,4.37
2018-09-10T05:03:04.944Z,6.00
2018-09-10T05:05:37.842Z,6.90
2018-09-10T05:08:12.562Z,3.27
2018-09-10T05:10:47.786Z,4.23
2018-09-10T05:13:21.456Z,7.20
2018-09-10T05:15:55.835Z,5.17
2018-09-10T05:18:29.059Z,6.07
2018-09-10T05:21:03.098Z,6.17
2018-09-10T05:23:37.776Z,12.70
2018-09-10T05:26:11.981Z,7.87
2018-09-10T05:28:47.989Z,5.97
2018-09-10T05:31:23.864Z,4.70
2018-09-10T05:33:57.341Z,6.10
2018-09-10T05:36:34.870Z,5.37
2018-09-10T05:39:11.017Z,6.40
2018-09-10T05:41:48.555Z,6.03
2018-09-10T05:44:25.642Z,6.33
2018-09-10T05:47:00.827Z,8.07
2018-09-10T05:49:35.965Z,6.87
2018-09-10T05:52:11.178Z,4.07
2018-09-10T05:54:47.029Z,7.20
2018-09-10T05:57:22.141Z,5.80
2018-09-10T05:59:55.612Z,5.57
2018-09-10T06:02:29.470Z,5.20
2018-09-10T06:05:16.686Z,6.83
2018-09-10T06:07:54.547Z,5.60
2018-09-10T06:10:29.133Z,5.20
2018-09-10T06:13:04.734Z,5.37
2018-09-10T06:15:39.784Z,6.07
2018-09-10T06:18:14.034Z,9.90
2018-09-10T06:20:47.497Z,6.60
2018-09-10T06:23:24.165Z,7.30
2018-09-10T06:25:58.895Z,8.23
2018-09-10T06:28:34.657Z,5.50
2018-09-10T06:31:08.348Z,5.23
2018-09-10T06:33:42.576Z,4.17
2018-09-10T06:36:18.089Z,6.07
2018-09-10T06:38:53.215Z,6.57
2018-09-10T06:41:27.064Z,5.13
2018-09-10T06:44:01.413Z,7.07
2018-09-10T06:46:36.131Z,5.43
2018-09-10T06:49:15.665Z,6.40
2018-09-10T06:51:51.690Z,5.90
2018-09-10T06:54:25.313Z,7.07
2018-09-10T06:56:58.890Z,7.70
2018-09-10T06:59:32.075Z,7.13
2018-09-10T07:02:09.324Z,5.80
2018-09-10T07:04:42.777Z,7.47
2018-09-10T07:07:23.907Z,6.43
2018-09-10T07:09:59.268Z,3.20
2018-09-10T07:12:32.687Z,4.00
2018-09-10T07:15:07.980Z,5.43
2018-09-10T07:17:42.128Z,6.10
2018-09-10T07:20:17.866Z,5.20
2018-09-10T07:22:55.060Z,5.77
2018-09-10T07:25:33.067Z,4.50
2018-09-10T07:28:07.259Z,3.23
2018-09-10T07:30:43.291Z,6.90
2018-09-10T07:33:17.775Z,4.10
2018-09-10T07:35:54.619Z,4.27
2018-09-10T07:38:27.741Z,4.43
2018-09-10T07:41:01.619Z,2.57
2018-09-10T07:43:37.368Z,4.27
2018-09-10T14:34:25.748Z,12.30
2018-09-10T14:37:00.767Z,12.33
2018-09-10T14:39:34.239Z,12.27
2018-09-10T14:42:08.839Z,15.47
2018-09-10T14:44:42.410Z,10.80
2018-09-10T14:47:17.740Z,17.90
2018-09-10T14:49:52.009Z,12.33
2018-09-10T14:52:25.760Z,10.90
2018-09-10T14:54:59.134Z,12.77
2018-09-10T14:57:32.430Z,13.33
2018-09-10T15:00:05.932Z,11.80
2018-09-10T15:02:39.853Z,9.07
2018-09-10T15:05:13.420Z,12.53
2018-09-10T15:07:46.901Z,11.93
2018-09-10T15:10:22.243Z,13.80
2018-09-10T15:12:56.318Z,11.33
2018-09-10T15:15:29.645Z,11.73
2018-09-10T15:18:02.944Z,12.83
2018-09-10T15:20:37.831Z,16.90
2018-09-10T15:23:11.504Z,11.83
2018-09-10T15:25:47.895Z,10.57
2018-09-10T15:28:24.280Z,10.50
2018-09-10T15:30:57.682Z,9.83
2018-09-10T15:33:32.942Z,8.33
2018-09-10T15:36:06.160Z,14.10
2018-09-10T15:39:12.149Z,9.53
2018-09-10T15:41:49.926Z,10.13
2018-09-10T15:44:25.874Z,14.37
2018-09-10T15:47:00.548Z,13.90
2018-09-10T15:49:33.930Z,13.07
2018-09-10T15:52:10.726Z,13.03
2018-09-10T15:54:47.738Z,10.77
2018-09-10T15:57:23.235Z,13.90
2018-09-10T15:59:57.515Z,12.90
2018-09-10T16:05:13.889Z,12.13
2018-09-10T16:07:48.992Z,10.90
2018-09-10T16:10:22.648Z,11.70
2018-09-10T16:12:56.949Z,12.13
2018-09-10T16:15:32.365Z,10.03
2018-09-10T16:18:09.198Z,11.00
2018-09-10T16:20:49.083Z,11.80
2018-09-10T16:23:23.432Z,11.73
2018-09-10T16:25:57.866Z,8.40
2018-09-10T16:28:32.144Z,9.87
2018-09-10T16:31:06.079Z,7.83
2018-09-10T16:33:40.386Z,7.77
2018-09-10T16:36:15.540Z,8.87
2018-09-10T16:38:49.666Z,8.73
2018-09-10T16:41:23.679Z,9.60
2018-09-10T16:43:56.844Z,7.73
2018-09-10T16:46:30.274Z,12.03
2018-09-10T16:49:03.762Z,10.53
2018-09-10T16:51:38.622Z,10.37
2018-09-10T16:54:12.197Z,11.93
2018-09-10T16:56:46.011Z,7.13
2018-09-10T16:59:21.172Z,12.37
2018-09-10T17:01:54.499Z,10.57
2018-09-10T17:04:30.793Z,12.97
2018-09-10T17:07:05.021Z,12.40
2018-09-10T17:09:42.833Z,9.97
2018-09-10T17:12:16.233Z,10.33
2018-09-10T17:14:51.988Z,7.70
2018-09-10T17:17:27.490Z,8.57
2018-09-10T17:20:05.349Z,10.03
2018-09-10T17:22:44.039Z,9.87
2018-09-10T17:25:18.877Z,11.07
2018-09-10T17:27:57.191Z,9.20
2018-09-10T17:30:31.553Z,9.63
2018-09-10T17:33:06.022Z,8.67
2018-09-10T17:35:44.910Z,10.50
2018-09-10T17:38:18.959Z,7.77
2018-09-10T17:40:52.383Z,9.37
2018-09-10T17:43:28.811Z,12.60
2018-09-10T17:46:06.430Z,6.27
2018-09-10T17:48:43.681Z,7.90
2018-09-10T17:51:17.553Z,8.60
2018-09-10T17:53:51.771Z,14.00
2018-09-10T17:56:30.288Z,11.43
2018-09-10T17:59:07.890Z,8.27
2018-09-10T18:01:44.109Z,9.17
2018-09-10T18:04:24.323Z,10.57
2018-09-10T18:07:03.902Z,7.80
2018-09-10T18:09:40.501Z,8.63
2018-09-10T18:12:16.022Z,8.73
2018-09-10T18:14:49.395Z,8.13
2018-09-10T18:17:22.882Z,9.17
2018-09-10T18:19:57.175Z,8.10
2018-09-10T18:22:30.797Z,9.00
2018-09-10T18:25:16.278Z,7.73
2018-09-10T18:27:51.539Z,11.57
2018-09-10T18:30:24.923Z,10.37
2018-09-10T18:33:07.279Z,9.13
2018-09-10T18:35:40.434Z,7.37
2018-09-10T18:38:13.769Z,10.83
2018-09-10T18:40:57.092Z,7.80
2018-09-10T18:43:31.787Z,6.70
2018-09-10T18:55:07.602Z,4.70
2018-09-10T19:03:22.650Z,8.27
2018-09-10T19:08:57.256Z,7.17
2018-09-10T19:11:45.755Z,6.00
2018-09-10T19:14:19.597Z,5.57
2018-09-10T19:17:03.377Z,6.53
2018-09-10T19:19:46.440Z,6.73
2018-09-10T19:22:39.316Z,5.13
2018-09-10T19:28:11.264Z,5.63
2018-09-10T19:33:40.275Z,7.73
2018-09-10T19:36:30.531Z,8.10
2018-09-10T19:39:13.429Z,4.37
2018-09-10T19:41:49.197Z,5.37
2018-09-10T19:44:31.427Z,6.27
2018-09-10T19:50:05.334Z,4.83
2018-09-10T19:52:40.336Z,4.90
2018-09-10T19:55:17.435Z,5.43
2018-09-10T20:04:30.221Z,6.60
2018-09-10T20:21:05.078Z,7.43
2018-09-10T20:23:37.976Z,5.33
2018-09-10T20:26:17.092Z,5.37
2018-09-10T20:28:56.087Z,5.07
2018-09-10T20:31:29.954Z,4.50
2018-09-10T20:34:14.834Z,5.07
2018-09-10T20:36:58.102Z,6.47
2018-09-10T20:39:34.299Z,6.67
2018-09-10T20:42:09.404Z,4.73
2018-09-10T20:44:44.530Z,9.23
2018-09-10T20:47:22.398Z,6.03
2018-09-10T20:50:20.684Z,8.23
2018-09-10T20:53:03.021Z,6.77
2018-09-10T20:55:43.888Z,5.27
2018-09-10T20:58:51.966Z,5.27
2018-09-10T21:01:40.776Z,7.23
2018-09-10T21:08:06.661Z,4.93
2018-09-10T21:14:22.931Z,4.13
2018-09-10T21:26:54.036Z,5.40
2018-09-10T21:42:51.870Z,3.70
2018-09-10T21:45:28.528Z,3.23
2018-09-10T21:51:37.176Z,4.90
2018-09-10T21:54:26.086Z,3.00
2018-09-10T21:57:42.025Z,6.17
2018-09-10T22:06:51.932Z,5.23
2018-09-10T22:12:10.447Z,3.43
2018-09-10T22:17:30.996Z,4.83
2018-09-10T22:20:17.752Z,6.50
2018-09-10T22:26:05.400Z,4.23
2018-09-10T22:29:07.069Z,5.00
2018-09-10T22:35:02.352Z,5.50
2018-09-10T22:41:10.769Z,3.63
2018-09-10T22:43:44.494Z,7.13
2018-09-10T22:46:26.633Z,5.07
2018-09-10T22:49:11.356Z,4.03
2018-09-10T22:51:55.534Z,4.93
2018-09-10T22:54:39.789Z,4.07
2018-09-10T22:57:34.429Z,3.73
2018-09-10T23:02:54.961Z,5.97
2018-09-10T23:16:07.523Z,3.27
2018-09-10T23:18:55.711Z,7.10
2018-09-10T23:32:08.672Z,4.50
2018-09-10T23:38:10.238Z,4.40
2018-09-10T23:44:13.659Z,5.33
2018-09-10T23:50:13.731Z,2.80
2018-09-10T23:55:57.670Z,7.43
